createdAt,value
2019-05-11T00:00:31.377Z,3.10
2019-05-11T00:03:00.901Z,3.00
2019-05-11T00:05:30.423Z,2.73
2019-05-11T00:07:59.985Z,2.40
2019-05-11T00:10:29.595Z,2.80
2019-05-11T00:12:59.115Z,2.70
2019-05-11T00:15:28.669Z,2.83
2019-05-11T00:17:58.184Z,3.00
2019-05-11T00:20:27.691Z,3.20
2019-05-11T00:22:57.235Z,2.73
2019-05-11T00:25:26.755Z,2.77
2019-05-11T00:27:56.298Z,2.97
2019-05-11T00:30:25.844Z,3.30
2019-05-11T00:32:55.378Z,3.30
2019-05-11T00:35:24.874Z,3.60
2019-05-11T00:37:54.441Z,3.37
2019-05-11T00:40:23.942Z,3.30
2019-05-11T00:42:53.454Z,3.07
2019-05-11T00:45:23.102Z,3.60
2019-05-11T00:47:52.618Z,3.43
2019-05-11T00:50:37.621Z,3.10
2019-05-11T00:52:53.417Z,2.50
2019-05-11T00:55:22.939Z,2.87
2019-05-11T00:57:52.446Z,2.60
2019-05-11T01:00:22.394Z,2.70
2019-05-11T01:02:52.180Z,2.40
2019-05-11T01:05:21.704Z,2.60
2019-05-11T01:07:51.245Z,2.50
2019-05-11T01:10:25.566Z,2.67
2019-05-11T01:12:52.010Z,2.40
2019-05-11T01:15:21.553Z,2.43
2019-05-11T01:17:51.076Z,2.20
2019-05-11T01:20:20.707Z,2.40
2019-05-11T01:22:50.267Z,2.50
2019-05-11T01:25:19.778Z,2.80
2019-05-11T01:27:49.313Z,2.80
2019-05-11T01:30:20.434Z,2.30
2019-05-11T01:32:49.973Z,2.50
2019-05-11T01:35:19.479Z,2.27
2019-05-11T01:37:49.044Z,2.00
2019-05-11T01:40:18.767Z,1.97
2019-05-11T01:42:48.289Z,2.43
2019-05-11T01:45:17.922Z,2.27
2019-05-11T01:47:47.440Z,2.60
2019-05-11T01:50:16.963Z,2.20
2019-05-11T01:52:46.518Z,2.40
2019-05-11T01:55:16.053Z,2.80
2019-05-11T01:57:45.559Z,2.60
2019-05-11T02:00:15.296Z,2.63
2019-05-11T02:02:44.822Z,2.20
2019-05-11T02:05:30.718Z,2.60
2019-05-11T02:08:02.295Z,3.90
2019-05-11T02:10:32.445Z,2.60
2019-05-11T02:13:01.998Z,2.50
2019-05-11T02:15:31.816Z,2.60
2019-05-11T02:18:01.340Z,3.00
2019-05-11T02:20:31.007Z,3.30
2019-05-11T02:23:00.532Z,3.30
2019-05-11T02:25:30.047Z,3.33
2019-05-11T02:27:59.593Z,3.90
2019-05-11T02:30:29.187Z,3.53
2019-05-11T02:32:58.681Z,3.47
2019-05-11T02:35:28.243Z,3.87
2019-05-11T02:37:57.723Z,3.40
2019-05-11T02:40:27.450Z,3.30
2019-05-11T02:42:57.014Z,2.77
2019-05-11T02:45:38.078Z,3.10
2019-05-11T02:48:07.716Z,3.10
2019-05-11T02:50:38.758Z,2.70
2019-05-11T02:53:09.240Z,3.10
2019-05-11T02:55:39.841Z,3.20
2019-05-11T02:58:09.659Z,3.03
2019-05-11T03:00:41.619Z,2.80
2019-05-11T03:03:11.701Z,3.00
2019-05-11T03:05:41.334Z,3.17
2019-05-11T03:08:10.953Z,3.27
2019-05-11T03:10:40.501Z,3.70
2019-05-11T03:13:10.042Z,3.13
2019-05-11T03:15:39.506Z,3.53
2019-05-11T03:18:09.067Z,3.20
2019-05-11T03:20:38.576Z,3.40
2019-05-11T03:23:08.193Z,2.67
2019-05-11T03:25:37.848Z,3.37
2019-05-11T03:28:08.544Z,3.00
2019-05-11T03:30:38.202Z,2.93
2019-05-11T03:33:07.767Z,2.50
2019-05-11T03:35:37.275Z,2.77
2019-05-11T03:38:06.879Z,2.83
2019-05-11T03:40:36.451Z,2.83
2019-05-11T03:43:06.107Z,3.17
2019-05-11T03:45:35.595Z,2.57
2019-05-11T03:48:05.162Z,2.83
2019-05-11T03:50:34.665Z,2.47
2019-05-11T03:53:04.305Z,2.47
2019-05-11T03:55:33.870Z,2.20
2019-05-11T03:58:03.394Z,2.47
2019-05-11T04:00:32.908Z,2.70
2019-05-11T04:03:02.477Z,2.27
2019-05-11T04:05:31.879Z,2.70
2019-05-11T04:08:01.281Z,2.23
2019-05-11T04:10:30.848Z,2.27
2019-05-11T04:13:00.351Z,2.87
2019-05-11T04:15:29.748Z,2.60
2019-05-11T04:17:59.193Z,3.63
2019-05-11T04:20:30.239Z,2.87
2019-05-11T04:22:59.736Z,3.47
2019-05-11T04:25:29.164Z,2.80
2019-05-11T04:27:58.591Z,2.77
2019-05-11T04:30:29.843Z,2.70
2019-05-11T04:32:59.366Z,3.07
2019-05-11T04:35:30.643Z,2.50
2019-05-11T04:38:00.096Z,2.50
2019-05-11T04:40:29.639Z,2.40
2019-05-11T04:42:59.026Z,2.40
2019-05-11T04:45:28.509Z,2.20
2019-05-11T04:47:58.411Z,1.80
2019-05-11T04:50:27.803Z,1.83
2019-05-11T04:52:57.187Z,1.90
2019-05-11T04:55:26.716Z,2.10
2019-05-11T04:57:56.208Z,1.50
2019-05-11T05:00:27.159Z,1.70
2019-05-11T05:02:56.607Z,1.40
2019-05-11T05:05:26.097Z,1.50
2019-05-11T05:08:08.688Z,1.60
2019-05-11T05:10:26.730Z,1.60
2019-05-11T05:13:09.611Z,1.50
2019-05-11T05:15:27.494Z,1.80
2019-05-11T05:17:57.043Z,1.80
2019-05-11T05:20:26.455Z,1.10
2019-05-11T05:22:55.859Z,1.70
2019-05-11T05:25:25.486Z,1.60
2019-05-11T05:27:54.990Z,1.47
2019-05-11T05:30:24.367Z,1.50
2019-05-11T05:32:53.804Z,1.73
2019-05-11T05:35:23.304Z,1.40
2019-05-11T05:37:52.891Z,1.53
2019-05-11T05:40:22.317Z,1.60
2019-05-11T05:42:51.719Z,1.50
2019-05-11T05:45:21.225Z,1.90
2019-05-11T05:47:50.766Z,1.47
2019-05-11T05:50:20.528Z,1.80
2019-05-11T05:52:49.962Z,1.47
2019-05-11T05:55:19.688Z,1.90
2019-05-11T05:57:49.250Z,2.07
2019-05-11T06:00:20.249Z,1.90
2019-05-11T06:02:49.781Z,1.80
2019-05-11T06:05:19.407Z,1.83
2019-05-11T06:07:48.802Z,2.27
2019-05-11T06:10:18.543Z,1.70
2019-05-11T06:12:48.052Z,1.93
2019-05-11T06:15:17.582Z,1.80
2019-05-11T06:17:47.032Z,2.20
2019-05-11T06:20:16.994Z,2.00
2019-05-11T06:22:46.777Z,1.97
2019-05-11T06:25:16.304Z,2.00
2019-05-11T06:27:45.690Z,1.63
2019-05-11T06:30:15.282Z,1.53
2019-05-11T06:32:44.813Z,1.70
2019-05-11T06:35:14.828Z,1.60
2019-05-11T06:37:44.321Z,1.50
2019-05-11T06:40:13.950Z,1.70
2019-05-11T06:42:43.321Z,1.60
2019-05-11T06:45:13.135Z,1.80
2019-05-11T06:47:42.660Z,2.10
2019-05-11T06:50:12.462Z,1.70
2019-05-11T06:52:41.858Z,1.57
2019-05-11T06:55:11.869Z,1.47
2019-05-11T06:57:41.366Z,1.60
2019-05-11T07:00:11.369Z,1.60
2019-05-11T07:02:40.854Z,1.60
2019-05-11T07:05:10.757Z,1.70
2019-05-11T07:07:47.553Z,1.33
2019-05-11T07:10:11.773Z,1.60
2019-05-11T07:12:41.255Z,1.43
2019-05-11T07:15:11.327Z,1.17
2019-05-11T07:17:40.957Z,1.10
2019-05-11T07:20:10.437Z,1.20
2019-05-11T07:22:40.004Z,1.20
2019-05-11T07:25:09.658Z,0.90
2019-05-11T07:27:39.030Z,1.00
2019-05-11T07:30:08.991Z,1.13
2019-05-11T07:32:38.476Z,1.30
2019-05-11T07:35:08.581Z,1.20
2019-05-11T07:37:38.714Z,1.20
2019-05-11T07:40:09.155Z,1.57
2019-05-11T07:42:38.662Z,1.10
2019-05-11T07:45:09.060Z,1.10
2019-05-11T07:47:38.712Z,1.07
2019-05-11T07:50:08.613Z,1.10
2019-05-11T07:52:38.191Z,0.90
2019-05-11T07:55:08.709Z,0.90
2019-05-11T07:57:39.159Z,1.03
2019-05-11T08:00:09.372Z,1.00
2019-05-11T08:02:39.080Z,0.90
2019-05-11T08:05:09.366Z,0.80
2019-05-11T08:07:38.886Z,1.20
2019-05-11T08:10:08.943Z,1.30
2019-05-11T08:12:39.300Z,0.83
2019-05-11T08:15:13.259Z,1.10
2019-05-11T08:17:40.947Z,0.90
2019-05-11T08:20:11.451Z,1.10
2019-05-11T08:22:40.853Z,1.13
2019-05-11T08:25:10.498Z,0.70
2019-05-11T08:27:39.977Z,0.90
2019-05-11T08:30:10.730Z,0.67
2019-05-11T08:32:40.177Z,0.93
2019-05-11T08:35:10.316Z,0.90
2019-05-11T08:37:39.798Z,0.90
2019-05-11T08:40:10.032Z,1.27
2019-05-11T08:42:39.511Z,0.80
2019-05-11T08:45:18.828Z,1.00
2019-05-11T08:47:40.144Z,0.90
2019-05-11T08:50:09.824Z,1.00
2019-05-11T08:52:39.402Z,1.00
2019-05-11T08:55:09.643Z,0.70
2019-05-11T08:57:39.102Z,0.60
2019-05-11T09:00:13.634Z,1.00
2019-05-11T09:02:46.630Z,0.77
2019-05-11T09:05:15.205Z,0.70
2019-05-11T09:07:44.781Z,0.60
2019-05-11T09:10:14.370Z,0.60
2019-05-11T09:12:43.863Z,0.90
2019-05-11T09:15:28.048Z,0.60
2019-05-11T09:17:44.774Z,0.77
2019-05-11T09:20:14.553Z,0.93
2019-05-11T09:22:43.959Z,0.87
2019-05-11T09:25:13.659Z,1.00
2019-05-11T09:27:43.579Z,1.00
2019-05-11T09:30:13.425Z,0.67
2019-05-11T09:32:42.819Z,1.20
2019-05-11T09:35:12.511Z,0.77
2019-05-11T09:37:42.043Z,0.70
2019-05-11T09:40:11.632Z,0.63
2019-05-11T09:42:41.052Z,0.80
2019-05-11T09:45:10.657Z,0.80
2019-05-11T09:47:40.165Z,0.63
2019-05-11T09:50:09.774Z,0.67
2019-05-11T09:52:39.192Z,0.60
2019-05-11T09:55:09.543Z,0.60
2019-05-11T09:57:39.028Z,0.60
2019-05-11T10:00:09.775Z,0.80
2019-05-11T10:02:39.246Z,0.60
2019-05-11T10:05:09.168Z,0.70
2019-05-11T10:07:38.586Z,0.60
2019-05-11T10:10:09.248Z,0.70
2019-05-11T10:12:39.025Z,0.60
2019-05-11T10:15:08.911Z,0.60
2019-05-11T10:17:38.580Z,0.60
2019-05-11T10:20:09.421Z,0.70
2019-05-11T10:22:39.173Z,0.70
2019-05-11T10:25:09.269Z,0.73
2019-05-11T10:27:38.760Z,0.70
2019-05-11T10:30:08.701Z,0.60
2019-05-11T10:32:38.409Z,0.70
2019-05-11T10:35:08.270Z,0.77
2019-05-11T10:37:39.244Z,0.53
2019-05-11T10:40:09.698Z,0.55
2019-05-11T10:42:39.277Z,0.50
2019-05-11T10:45:09.778Z,0.60
2019-05-11T10:47:39.266Z,0.47
2019-05-11T10:50:09.447Z,0.80
2019-05-11T10:52:39.064Z,0.50
2019-05-11T10:55:09.036Z,0.50
2019-05-11T10:57:38.865Z,0.60
2019-05-11T11:00:10.385Z,0.50
2019-05-11T11:02:39.986Z,0.60
2019-05-11T11:05:09.459Z,0.88
2019-05-11T11:07:38.870Z,0.50
2019-05-11T11:10:09.542Z,0.55
2019-05-11T11:12:39.449Z,0.68
2019-05-11T11:15:09.472Z,0.50
2019-05-11T11:17:38.877Z,0.70
2019-05-11T11:20:08.808Z,0.40
2019-05-11T11:22:43.637Z,0.50
2019-05-11T11:25:09.918Z,0.57
2019-05-11T11:27:39.414Z,0.50
2019-05-11T11:30:09.386Z,0.70
2019-05-11T11:32:43.400Z,0.50
2019-05-11T11:35:13.064Z,0.60
2019-05-11T11:37:42.548Z,0.60
2019-05-11T11:40:12.050Z,0.50
2019-05-11T11:42:41.483Z,0.70
2019-05-11T11:45:11.793Z,0.50
2019-05-11T11:47:41.373Z,0.70
2019-05-11T11:50:11.111Z,0.78
2019-05-11T11:52:40.485Z,0.40
2019-05-11T11:55:11.114Z,0.50
2019-05-11T11:57:40.620Z,0.80
2019-05-11T12:00:10.327Z,1.02
2019-05-11T12:02:39.793Z,0.50
2019-05-11T12:05:09.802Z,0.53
2019-05-11T12:07:39.202Z,1.20
2019-05-11T12:10:09.000Z,0.70
2019-05-11T12:12:38.934Z,0.60
2019-05-11T12:15:09.254Z,0.70
2019-05-11T12:17:38.702Z,0.62
2019-05-11T12:20:09.046Z,0.60
2019-05-11T12:22:38.899Z,0.55
2019-05-11T12:25:08.408Z,0.62
2019-05-11T12:27:38.514Z,0.60
2019-05-11T12:30:10.193Z,0.62
2019-05-11T12:32:44.510Z,0.50
2019-05-11T12:35:14.196Z,0.60
2019-05-11T12:37:43.955Z,0.60
2019-05-11T12:40:13.678Z,0.70
2019-05-11T12:42:43.069Z,0.70
2019-05-11T12:45:12.952Z,0.53
2019-05-11T12:47:42.466Z,0.80
2019-05-11T12:50:12.195Z,0.80
2019-05-11T12:52:41.583Z,0.98
2019-05-11T12:55:12.436Z,0.90
2019-05-11T12:57:41.947Z,1.57
2019-05-11T13:00:11.520Z,1.20
2019-05-11T13:02:41.017Z,1.20
2019-05-11T13:05:10.825Z,0.98
2019-05-11T13:07:40.338Z,0.70
2019-05-11T13:10:10.037Z,0.98
2019-05-11T13:12:39.491Z,1.20
2019-05-11T13:15:09.421Z,0.78
2019-05-11T13:17:40.979Z,0.80
2019-05-11T13:20:12.856Z,0.90
2019-05-11T13:22:41.943Z,0.70
2019-05-11T13:25:11.681Z,0.80
2019-05-11T13:27:41.262Z,1.37
2019-05-11T13:30:11.093Z,0.98
2019-05-11T13:32:40.531Z,2.10
2019-05-11T13:35:10.113Z,0.80
2019-05-11T13:37:39.677Z,0.80
2019-05-11T13:40:09.699Z,1.07
2019-05-11T13:42:40.023Z,1.87
2019-05-11T13:45:10.300Z,1.10
2019-05-11T13:47:51.300Z,0.70
2019-05-11T13:50:11.313Z,1.30
2019-05-11T13:52:40.693Z,0.90
2019-05-11T13:55:10.323Z,0.70
2019-05-11T13:57:40.678Z,0.60
2019-05-11T14:00:11.356Z,0.70
2019-05-11T14:02:40.870Z,0.57
2019-05-11T14:05:10.447Z,1.12
2019-05-11T14:07:39.836Z,0.80
2019-05-11T14:10:09.991Z,0.70
2019-05-11T14:12:39.521Z,1.07
2019-05-11T14:15:09.297Z,0.85
2019-05-11T14:17:38.776Z,0.80
2019-05-11T14:20:09.241Z,1.22
2019-05-11T14:22:38.934Z,1.45
2019-05-11T14:25:08.996Z,0.78
2019-05-11T14:27:39.234Z,0.65
2019-05-11T14:30:09.709Z,1.17
2019-05-11T14:32:39.241Z,1.57
2019-05-11T14:35:12.087Z,1.10
2019-05-11T14:37:39.957Z,0.90
2019-05-11T14:40:09.881Z,0.78
2019-05-11T14:42:39.287Z,0.70
2019-05-11T14:45:10.036Z,0.50
2019-05-11T14:47:42.667Z,0.42
2019-05-11T14:50:10.862Z,0.50
2019-05-11T14:52:40.249Z,0.50
2019-05-11T14:55:09.765Z,0.60
2019-05-11T14:57:39.806Z,0.40
2019-05-11T15:00:09.937Z,0.43
2019-05-11T15:02:49.628Z,0.50
2019-05-11T15:05:20.903Z,0.70
2019-05-11T15:07:52.658Z,0.80
2019-05-11T15:10:22.993Z,0.80
2019-05-11T15:12:52.398Z,0.40
2019-05-11T15:15:21.975Z,0.82
2019-05-11T15:17:51.523Z,0.70
2019-05-11T15:20:21.220Z,0.95
2019-05-11T15:22:51.102Z,0.70
2019-05-11T15:25:20.609Z,0.72
2019-05-11T15:27:50.057Z,0.60
2019-05-11T15:30:20.853Z,0.40
2019-05-11T15:32:50.383Z,0.70
2019-05-11T15:35:19.771Z,0.50
2019-05-11T15:37:49.306Z,0.50
2019-05-11T15:40:20.523Z,0.50
2019-05-11T15:42:50.101Z,0.40
2019-05-11T15:45:21.288Z,0.55
2019-05-11T15:47:54.324Z,0.70
2019-05-11T15:50:23.991Z,0.70
2019-05-11T15:52:53.543Z,0.70
2019-05-11T15:55:23.047Z,1.10
2019-05-11T15:57:52.521Z,0.90
2019-05-11T16:00:22.654Z,1.00
2019-05-11T16:02:52.278Z,2.05
2019-05-11T16:05:21.666Z,1.45
2019-05-11T16:07:51.072Z,1.30
2019-05-11T16:10:20.729Z,1.45
2019-05-11T16:12:50.244Z,0.68
2019-05-11T16:15:19.893Z,0.90
2019-05-11T16:17:49.931Z,1.40
2019-05-11T16:20:19.636Z,0.62
2019-05-11T16:22:49.153Z,1.12
2019-05-11T16:25:19.867Z,0.85
2019-05-11T16:27:49.998Z,0.75
2019-05-11T16:30:21.716Z,0.93
2019-05-11T16:32:51.262Z,1.12
2019-05-11T16:35:20.642Z,0.95
2019-05-11T16:37:50.028Z,1.00
2019-05-11T16:40:20.784Z,1.07
2019-05-11T16:42:50.737Z,0.82
2019-05-11T16:45:23.614Z,0.88
2019-05-11T16:47:51.659Z,1.27
2019-05-11T16:50:21.107Z,0.90
2019-05-11T16:52:50.523Z,2.33
2019-05-11T16:55:20.018Z,0.90
2019-05-11T16:57:49.504Z,0.93
2019-05-11T17:00:19.318Z,1.00
2019-05-11T17:02:49.342Z,1.55
2019-05-11T17:05:26.328Z,2.07
2019-05-11T17:07:50.156Z,2.67
2019-05-11T17:10:19.775Z,1.60
2019-05-11T17:12:49.255Z,2.87
2019-05-11T17:15:19.333Z,2.50
2019-05-11T17:17:49.184Z,1.33
2019-05-11T17:20:19.253Z,1.77
2019-05-11T17:22:53.722Z,1.80
2019-05-11T17:25:22.051Z,2.77
2019-05-11T17:27:51.435Z,1.73
2019-05-11T17:30:22.501Z,2.00
2019-05-11T17:32:52.388Z,2.17
2019-05-11T17:35:21.785Z,2.60
2019-05-11T17:37:51.158Z,2.70
2019-05-11T17:40:23.458Z,2.50
2019-05-11T17:42:53.855Z,3.13
2019-05-11T17:45:23.207Z,3.37
2019-05-11T17:47:52.670Z,3.53
2019-05-11T17:50:22.158Z,4.20
2019-05-11T17:52:51.649Z,4.13
2019-05-11T17:55:21.083Z,3.63
2019-05-11T17:57:53.778Z,7.03
2019-05-11T18:00:21.949Z,8.43
2019-05-11T18:02:51.468Z,8.33
2019-05-11T18:05:20.979Z,8.37
2019-05-11T18:07:50.457Z,8.17
2019-05-11T18:10:20.241Z,8.13
2019-05-11T18:12:49.711Z,9.03
2019-05-11T18:15:19.922Z,10.50
2019-05-11T18:17:49.472Z,10.67
2019-05-11T18:20:28.637Z,9.73
2019-05-11T18:22:58.393Z,7.20
2019-05-11T18:25:28.874Z,9.03
2019-05-11T18:27:58.532Z,8.57
2019-05-11T18:30:29.345Z,8.97
2019-05-11T18:32:59.464Z,7.03
2019-05-11T18:35:29.213Z,5.23
2019-05-11T18:37:58.737Z,7.57
2019-05-11T18:40:28.795Z,7.70
2019-05-11T18:42:58.294Z,7.00
2019-05-11T18:45:28.829Z,6.37
2019-05-11T18:47:58.308Z,5.17
2019-05-11T18:50:30.901Z,4.43
2019-05-11T18:52:59.011Z,4.10
2019-05-11T18:55:28.386Z,4.20
2019-05-11T18:57:58.166Z,4.00
2019-05-11T19:00:27.821Z,5.57
2019-05-11T19:02:57.981Z,4.87
2019-05-11T19:05:29.195Z,4.80
2019-05-11T19:07:58.795Z,3.53
2019-05-11T19:10:28.296Z,3.50
2019-05-11T19:12:59.134Z,3.20
2019-05-11T19:15:28.584Z,2.70
2019-05-11T19:17:58.270Z,3.00
2019-05-11T19:20:28.469Z,3.40
2019-05-11T19:22:59.076Z,3.50
2019-05-11T19:25:28.737Z,2.70
2019-05-11T19:28:00.511Z,2.47
2019-05-11T19:30:29.899Z,2.67
2019-05-11T19:32:59.280Z,3.00
2019-05-11T19:35:28.909Z,2.70
2019-05-11T19:37:58.353Z,2.40
2019-05-11T19:40:27.770Z,2.60
2019-05-11T19:42:59.127Z,2.70
2019-05-11T19:45:29.557Z,2.83
2019-05-11T19:47:59.320Z,3.57
2019-05-11T19:50:28.751Z,3.07
2019-05-11T19:52:58.159Z,3.90
2019-05-11T19:55:28.554Z,3.33
2019-05-11T19:57:58.375Z,3.10
2019-05-11T20:00:27.763Z,3.30
2019-05-11T20:02:58.533Z,3.57
2019-05-11T20:05:28.881Z,3.60
2019-05-11T20:07:58.907Z,3.70
2019-05-11T20:10:28.531Z,4.20
2019-05-11T20:12:58.858Z,2.80
2019-05-11T20:15:28.397Z,3.40
2019-05-11T20:17:58.682Z,3.63
2019-05-11T20:20:28.609Z,2.97
2019-05-11T20:22:58.571Z,3.00
2019-05-11T20:25:28.774Z,2.40
2019-05-11T20:27:58.726Z,2.53
2019-05-11T20:30:28.280Z,2.73
2019-05-11T20:32:57.761Z,2.70
2019-05-11T20:35:28.017Z,2.20
2019-05-11T20:37:58.094Z,2.00
2019-05-11T20:40:28.559Z,1.80
2019-05-11T20:42:58.748Z,1.60
2019-05-11T20:45:28.805Z,1.93
2019-05-11T20:47:58.334Z,2.07
2019-05-11T20:50:27.763Z,1.57
2019-05-11T20:52:58.170Z,1.60
2019-05-11T20:55:28.421Z,1.73
2019-05-11T20:57:58.489Z,1.40
2019-05-11T21:00:28.199Z,1.60
2019-05-11T21:02:58.779Z,2.00
2019-05-11T21:05:28.592Z,1.90
2019-05-11T21:07:58.097Z,1.97
2019-05-11T21:10:28.046Z,1.80
2019-05-11T21:12:57.949Z,1.37
2019-05-11T21:15:28.162Z,1.83
2019-05-11T21:17:58.609Z,1.80
2019-05-11T21:20:28.717Z,2.30
2019-05-11T21:22:58.526Z,1.77
2019-05-11T21:25:28.742Z,1.60
2019-05-11T21:27:58.526Z,1.53
2019-05-11T21:30:28.320Z,1.73
2019-05-11T21:32:58.443Z,1.57
2019-05-11T21:35:28.261Z,1.93
2019-05-11T21:37:58.162Z,1.40
2019-05-11T21:40:29.036Z,2.00
2019-05-11T21:42:58.757Z,2.10
2019-05-11T21:45:28.525Z,2.40
2019-05-11T21:47:58.226Z,2.17
2019-05-11T21:50:28.050Z,2.30
2019-05-11T21:52:58.970Z,1.93
2019-05-11T21:55:29.419Z,1.90
2019-05-11T21:57:59.142Z,1.70
2019-05-11T22:00:30.630Z,1.60
2019-05-11T22:03:00.123Z,2.00
2019-05-11T22:05:29.553Z,1.97
2019-05-11T22:07:58.955Z,1.87
2019-05-11T22:10:28.544Z,1.53
2019-05-11T22:12:58.051Z,1.93
2019-05-11T22:15:28.396Z,5.50
2019-05-11T22:17:58.670Z,7.67
2019-05-11T22:20:28.750Z,7.37
2019-05-11T22:22:58.761Z,7.67
2019-05-11T22:25:28.681Z,6.17
2019-05-11T22:27:58.385Z,5.57
2019-05-11T22:30:28.010Z,5.40
2019-05-11T22:32:58.285Z,5.00
2019-05-11T22:35:28.593Z,4.50
2019-05-11T22:37:58.329Z,3.80
2019-05-11T22:40:28.272Z,3.43
2019-05-11T22:43:01.012Z,3.37
2019-05-11T22:45:29.121Z,3.27
2019-05-11T22:47:58.664Z,3.30
2019-05-11T22:50:29.099Z,3.60
2019-05-11T22:52:58.705Z,3.10
2019-05-11T22:55:28.199Z,3.43
2019-05-11T22:57:58.027Z,3.13
2019-05-11T23:00:42.340Z,3.70
2019-05-11T23:03:12.260Z,3.37
2019-05-11T23:05:42.810Z,3.20
2019-05-11T23:08:12.478Z,3.93
2019-05-11T23:10:41.899Z,3.50
2019-05-11T23:13:11.764Z,3.07
2019-05-11T23:15:41.586Z,3.60
2019-05-11T23:18:11.105Z,3.70
2019-05-11T23:20:40.487Z,3.80
2019-05-11T23:23:10.247Z,3.47
2019-05-11T23:25:39.676Z,3.73
2019-05-11T23:28:09.090Z,4.23
2019-05-11T23:30:39.081Z,4.37
2019-05-11T23:33:08.695Z,4.40
2019-05-11T23:35:38.438Z,4.20
2019-05-11T23:38:07.937Z,4.33
2019-05-11T23:40:38.059Z,4.10
2019-05-11T23:43:08.764Z,3.60
2019-05-11T23:45:38.468Z,3.53
2019-05-11T23:48:07.936Z,2.97
2019-05-11T23:50:38.576Z,2.57
2019-05-11T23:53:10.274Z,2.70
2019-05-11T23:55:39.540Z,2.93
2019-05-11T23:58:08.916Z,2.53
